sensor_id;sensor_type;location;lat;lon;timestamp;pressure;altitude;pressure_sealevel;temperature;humidity
4022;BME280;2025;48.260;16.432;2022-07-10T00:00:23;99971.94;;;16.35;100.00
4022;BME280;2025;48.260;16.432;2022-07-10T00:03:02;99966.69;;;16.32;100.00
4022;BME280;2025;48.260;16.432;2022-07-10T00:05:37;99966.78;;;16.23;100.00
4022;BME280;2025;48.260;16.432;2022-07-10T00:08:06;99965.88;;;16.25;100.00
4022;BME280;2025;48.260;16.432;2022-07-10T00:13:48;99977.31;;;16.26;100.00
4022;BME280;2025;48.260;16.432;2022-07-10T00:16:31;99972.88;;;16.29;100.00
4022;BME280;2025;48.260;16.432;2022-07-10T00:19:03;99972.88;;;16.29;100.00
4022;BME280;2025;48.260;16.432;2022-07-10T00:21:33;99964.94;;;16.31;100.00
4022;BME280;2025;48.260;16.432;2022-07-10T00:24:03;99973.78;;;16.27;100.00
4022;BME280;2025;48.260;16.432;2022-07-10T00:26:30;99971.13;;;16.28;100.00
4022;BME280;2025;48.260;16.432;2022-07-10T00:28:58;99963.19;;;16.30;100.00
4022;BME280;2025;48.260;16.432;2022-07-10T00:31:25;99972.91;;;16.28;100.00
4022;BME280;2025;48.260;16.432;2022-07-10T00:33:52;99981.69;;;16.30;100.00
4022;BME280;2025;48.260;16.432;2022-07-10T00:36:23;99968.50;;;16.28;100.00
4022;BME280;2025;48.260;16.432;2022-07-10T00:38:52;99964.16;;;16.21;100.00
4022;BME280;2025;48.260;16.432;2022-07-10T00:41:19;99965.94;;;16.21;100.00
4022;BME280;2025;48.260;16.432;2022-07-10T00:43:57;99961.56;;;16.18;100.00
4022;BME280;2025;48.260;16.432;2022-07-10T00:46:30;99953.63;;;16.18;100.00
4022;BME280;2025;48.260;16.432;2022-07-10T00:48:58;99940.50;;;16.11;100.00
4022;BME280;2025;48.260;16.432;2022-07-10T00:51:31;99951.06;;;16.09;100.00
4022;BME280;2025;48.260;16.432;2022-07-10T00:54:04;99951.09;;;16.08;100.00
4022;BME280;2025;48.260;16.432;2022-07-10T00:56:32;99951.13;;;16.03;100.00
4022;BME280;2025;48.260;16.432;2022-07-10T00:59:00;99948.50;;;16.01;100.00
4022;BME280;2025;48.260;16.432;2022-07-10T01:01:27;99934.44;;;16.01;100.00
4022;BME280;2025;48.260;16.432;2022-07-10T01:03:57;99936.16;;;16.05;100.00
4022;BME280;2025;48.260;16.432;2022-07-10T01:06:36;99935.28;;;16.04;100.00
4022;BME280;2025;48.260;16.432;2022-07-10T01:09:08;99923.88;;;15.99;100.00
4022;BME280;2025;48.260;16.432;2022-07-10T01:11:40;99924.81;;;15.92;100.00
4022;BME280;2025;48.260;16.432;2022-07-10T01:14:12;99913.44;;;15.86;100.00
4022;BME280;2025;48.260;16.432;2022-07-10T01:16:42;99917.91;;;15.79;100.00
4022;BME280;2025;48.260;16.432;2022-07-10T01:19:11;99902.13;;;15.73;100.00
4022;BME280;2025;48.260;16.432;2022-07-10T01:21:40;99896.81;;;15.76;100.00
4022;BME280;2025;48.260;16.432;2022-07-10T01:24:10;99900.41;;;15.69;100.00
4022;BME280;2025;48.260;16.432;2022-07-10T01:26:41;99888.13;;;15.63;100.00
4022;BME280;2025;48.260;16.432;2022-07-10T01:29:10;99891.63;;;15.67;100.00
4022;BME280;2025;48.260;16.432;2022-07-10T01:31:40;99889.03;;;15.61;100.00
4022;BME280;2025;48.260;16.432;2022-07-10T01:34:10;99893.44;;;15.53;100.00
4022;BME280;2025;48.260;16.432;2022-07-10T01:36:47;99886.53;;;15.39;100.00
4022;BME280;2025;48.260;16.432;2022-07-10T01:39:15;99893.59;;;15.37;100.00
4022;BME280;2025;48.260;16.432;2022-07-10T01:41:47;99881.25;;;15.39;100.00
4022;BME280;2025;48.260;16.432;2022-07-10T01:44:16;99868.09;;;15.33;100.00
4022;BME280;2025;48.260;16.432;2022-07-10T01:46:50;99852.22;;;15.38;100.00
4022;BME280;2025;48.260;16.432;2022-07-10T01:49:22;99849.53;;;15.43;100.00
4022;BME280;2025;48.260;16.432;2022-07-10T01:51:54;99849.50;;;15.46;100.00
4022;BME280;2025;48.260;16.432;2022-07-10T01:54:21;99852.97;;;15.51;100.00
4022;BME280;2025;48.260;16.432;2022-07-10T01:56:48;99849.41;;;15.56;100.00
4022;BME280;2025;48.260;16.432;2022-07-10T01:59:20;99859.06;;;15.66;100.00
4022;BME280;2025;48.260;16.432;2022-07-10T02:01:55;99852.78;;;15.75;100.00
4022;BME280;2025;48.260;16.432;2022-07-10T02:04:27;99865.97;;;15.80;100.00
4022;BME280;2025;48.260;16.432;2022-07-10T02:07:17;99864.09;;;15.88;100.00
4022;BME280;2025;48.260;16.432;2022-07-10T02:09:50;99873.69;;;15.96;100.00
4022;BME280;2025;48.260;16.432;2022-07-10T02:12:18;99889.50;;;15.99;100.00
4022;BME280;2025;48.260;16.432;2022-07-10T02:14:48;99904.38;;;16.10;100.00
4022;BME280;2025;48.260;16.432;2022-07-10T02:17:18;99904.34;;;16.11;100.00
4022;BME280;2025;48.260;16.432;2022-07-10T02:20:03;99891.09;;;16.16;100.00
4022;BME280;2025;48.260;16.432;2022-07-10T02:22:48;99912.25;;;16.14;100.00
4022;BME280;2025;48.260;16.432;2022-07-10T02:25:21;99918.44;;;16.13;100.00
4022;BME280;2025;48.260;16.432;2022-07-10T02:27:48;99914.84;;;16.19;100.00
4022;BME280;2025;48.260;16.432;2022-07-10T02:30:27;99914.84;;;16.19;100.00
4022;BME280;2025;48.260;16.432;2022-07-10T02:33:01;99931.63;;;16.15;100.00
4022;BME280;2025;48.260;16.432;2022-07-10T02:35:32;99920.97;;;16.21;100.00
4022;BME280;2025;48.260;16.432;2022-07-10T02:38:03;99940.44;;;16.15;100.00
4022;BME280;2025;48.260;16.432;2022-07-10T02:40:31;99943.03;;;16.18;100.00
4022;BME280;2025;48.260;16.432;2022-07-10T02:42:58;99941.28;;;16.19;100.00
4022;BME280;2025;48.260;16.432;2022-07-10T02:45:25;99936.97;;;16.10;100.00
4022;BME280;2025;48.260;16.432;2022-07-10T02:47:52;99924.69;;;16.04;100.00
4022;BME280;2025;48.260;16.432;2022-07-10T02:50:19;99934.41;;;16.02;100.00
4022;BME280;2025;48.260;16.432;2022-07-10T02:52:46;99931.81;;;15.98;100.00
4022;BME280;2025;48.260;16.432;2022-07-10T02:55:14;99918.63;;;15.95;100.00
4022;BME280;2025;48.260;16.432;2022-07-10T02:57:41;99916.00;;;15.93;100.00
4022;BME280;2025;48.260;16.432;2022-07-10T03:00:11;99922.16;;;15.94;100.00
4022;BME280;2025;48.260;16.432;2022-07-10T03:02:41;99923.91;;;15.95;100.00
4022;BME280;2025;48.260;16.432;2022-07-10T03:05:08;99918.63;;;15.96;100.00
4022;BME280;2025;48.260;16.432;2022-07-10T03:07:35;99916.88;;;15.94;100.00
4022;BME280;2025;48.260;16.432;2022-07-10T03:10:03;99914.22;;;15.95;100.00
4022;BME280;2025;48.260;16.432;2022-07-10T03:12:34;99938.88;;;15.97;100.00
4022;BME280;2025;48.260;16.432;2022-07-10T03:15:02;99942.41;;;15.96;100.00
4022;BME280;2025;48.260;16.432;2022-07-10T03:17:29;99947.66;;;15.98;100.00
4022;BME280;2025;48.260;16.432;2022-07-10T03:19:56;99937.03;;;16.04;100.00
4022;BME280;2025;48.260;16.432;2022-07-10T03:22:26;99935.31;;;16.01;100.00
4022;BME280;2025;48.260;16.432;2022-07-10T03:24:56;99935.28;;;16.04;100.00
4022;BME280;2025;48.260;16.432;2022-07-10T03:27:28;99939.69;;;16.04;100.00
4022;BME280;2025;48.260;16.432;2022-07-10T03:29:57;99942.28;;;16.09;100.00
4022;BME280;2025;48.260;16.432;2022-07-10T03:32:24;99939.53;;;16.16;100.00
4022;BME280;2025;48.260;16.432;2022-07-10T03:34:51;99957.13;;;16.19;100.00
4022;BME280;2025;48.260;16.432;2022-07-10T03:37:19;99952.72;;;16.21;100.00
4022;BME280;2025;48.260;16.432;2022-07-10T03:39:46;99953.56;;;16.24;100.00
4022;BME280;2025;48.260;16.432;2022-07-10T03:42:16;99963.16;;;16.31;100.00
4022;BME280;2025;48.260;16.432;2022-07-10T03:44:43;99956.09;;;16.32;100.00
4022;BME280;2025;48.260;16.432;2022-07-10T03:47:13;99949.03;;;16.34;100.00
4022;BME280;2025;48.260;16.432;2022-07-10T03:49:41;99958.81;;;16.27;100.00
4022;BME280;2025;48.260;16.432;2022-07-10T03:52:12;99956.97;;;16.32;100.00
4022;BME280;2025;48.260;16.432;2022-07-10T03:54:39;99956.97;;;16.32;100.00
4022;BME280;2025;48.260;16.432;2022-07-10T03:57:14;99951.69;;;16.32;100.00
4022;BME280;2025;48.260;16.432;2022-07-10T04:00:01;99955.25;;;16.30;100.00
4022;BME280;2025;48.260;16.432;2022-07-10T04:02:32;99967.59;;;16.29;100.00
4022;BME280;2025;48.260;16.432;2022-07-10T04:05:05;99971.09;;;16.31;100.00
4022;BME280;2025;48.260;16.432;2022-07-10T04:07:34;99983.44;;;16.31;100.00
4022;BME280;2025;48.260;16.432;2022-07-10T04:10:02;99979.91;;;16.32;100.00
4022;BME280;2025;48.260;16.432;2022-07-10T04:12:30;99983.34;;;16.39;100.00
4022;BME280;2025;48.260;16.432;2022-07-10T04:15:00;99976.28;;;16.39;100.00
4022;BME280;2025;48.260;16.432;2022-07-10T04:17:26;99981.56;;;16.41;100.00
4022;BME280;2025;48.260;16.432;2022-07-10T04:19:59;99976.25;;;16.44;100.00
4022;BME280;2025;48.260;16.432;2022-07-10T04:22:29;99972.69;;;16.46;100.00
4022;BME280;2025;48.260;16.432;2022-07-10T04:25:03;99973.59;;;16.45;100.00
4022;BME280;2025;48.260;16.432;2022-07-10T04:27:30;99970.00;;;16.51;100.00
4022;BME280;2025;48.260;16.432;2022-07-10T04:30:01;99973.53;;;16.48;100.00
4022;BME280;2025;48.260;16.432;2022-07-10T04:32:32;99983.13;;;16.57;100.00
4022;BME280;2025;48.260;16.432;2022-07-10T04:35:01;99975.09;;;16.64;100.00
4022;BME280;2025;48.260;16.432;2022-07-10T04:37:31;99981.28;;;16.68;100.00
4022;BME280;2025;48.260;16.432;2022-07-10T04:40:00;99971.53;;;16.72;100.00
4022;BME280;2025;48.260;16.432;2022-07-10T04:42:27;99983.78;;;16.79;100.00
4022;BME280;2025;48.260;16.432;2022-07-10T04:44:54;99978.56;;;16.73;100.00
4022;BME280;2025;48.260;16.432;2022-07-10T04:47:21;99973.28;;;16.73;100.00
4022;BME280;2025;48.260;16.432;2022-07-10T04:49:48;99973.22;;;16.76;100.00
4022;BME280;2025;48.260;16.432;2022-07-10T04:52:16;99969.69;;;16.77;100.00
4022;BME280;2025;48.260;16.432;2022-07-10T04:54:43;99971.50;;;16.73;100.00
4022;BME280;2025;48.260;16.432;2022-07-10T04:57:11;99969.69;;;16.77;100.00
4022;BME280;2025;48.260;16.432;2022-07-10T04:59:37;99972.28;;;16.80;100.00
4022;BME280;2025;48.260;16.432;2022-07-10T05:02:05;99979.25;;;16.87;100.00
4022;BME280;2025;48.260;16.432;2022-07-10T05:04:32;99971.28;;;16.90;100.00
4022;BME280;2025;48.260;16.432;2022-07-10T05:06:59;99973.84;;;16.96;100.00
4022;BME280;2025;48.260;16.432;2022-07-10T05:09:28;99977.28;;;17.03;100.00
4022;BME280;2025;48.260;16.432;2022-07-10T05:11:55;99984.28;;;17.07;100.00
4022;BME280;2025;48.260;16.432;2022-07-10T05:14:22;99971.81;;;17.15;100.00
4022;BME280;2025;48.260;16.432;2022-07-10T05:16:51;99968.16;;;17.22;100.00
4022;BME280;2025;48.260;16.432;2022-07-10T05:19:18;99976.91;;;17.27;100.00
4022;BME280;2025;48.260;16.432;2022-07-10T05:21:45;99979.59;;;17.25;100.00
4022;BME280;2025;48.260;16.432;2022-07-10T05:24:12;99985.63;;;17.33;100.00
4022;BME280;2025;48.260;16.432;2022-07-10T05:26:41;99988.28;;;17.33;100.00
4022;BME280;2025;48.260;16.432;2022-07-10T05:29:08;99985.63;;;17.33;100.00
4022;BME280;2025;48.260;16.432;2022-07-10T05:31:34;99990.06;;;17.33;100.00
4022;BME280;2025;48.260;16.432;2022-07-10T05:34:01;99992.78;;;17.28;100.00
4022;BME280;2025;48.260;16.432;2022-07-10T05:36:28;99995.38;;;17.35;100.00
4022;BME280;2025;48.260;16.432;2022-07-10T05:38:55;99999.78;;;17.34;100.00
4022;BME280;2025;48.260;16.432;2022-07-10T05:41:22;99998.03;;;17.31;100.00
4022;BME280;2025;48.260;16.432;2022-07-10T05:43:51;100000.69;;;17.31;100.00
4022;BME280;2025;48.260;16.432;2022-07-10T05:46:18;99996.19;;;17.40;100.00
4022;BME280;2025;48.260;16.432;2022-07-10T05:48:45;100009.50;;;17.35;100.00
4022;BME280;2025;48.260;16.432;2022-07-10T05:51:12;100009.38;;;17.43;100.00
4022;BME280;2025;48.260;16.432;2022-07-10T05:53:39;100009.41;;;17.40;100.00
4022;BME280;2025;48.260;16.432;2022-07-10T05:56:06;100017.19;;;17.52;100.00
4022;BME280;2025;48.260;16.432;2022-07-10T05:58:36;100017.31;;;17.43;100.00
4022;BME280;2025;48.260;16.432;2022-07-10T06:01:14;100019.81;;;17.52;100.00
4022;BME280;2025;48.260;16.432;2022-07-10T06:03:44;100012.00;;;17.44;100.00
4022;BME280;2025;48.260;16.432;2022-07-10T06:06:11;100016.41;;;17.45;100.00
4022;BME280;2025;48.260;16.432;2022-07-10T06:08:49;100019.91;;;17.46;100.00
4022;BME280;2025;48.260;16.432;2022-07-10T06:11:19;100016.31;;;17.51;100.00
4022;BME280;2025;48.260;16.432;2022-07-10T06:13:49;100012.13;;;17.35;100.00
4022;BME280;2025;48.260;16.432;2022-07-10T06:16:23;100014.81;;;17.30;100.00
4022;BME280;2025;48.260;16.432;2022-07-10T06:18:50;100016.88;;;17.10;100.00
4022;BME280;2025;48.260;16.432;2022-07-10T06:21:20;100002.66;;;17.17;100.00
4022;BME280;2025;48.260;16.432;2022-07-10T06:23:51;100004.41;;;17.18;100.00
4022;BME280;2025;48.260;16.432;2022-07-10T06:26:23;100013.16;;;17.23;100.00
4022;BME280;2025;48.260;16.432;2022-07-10T06:28:50;100006.97;;;17.24;100.00
4022;BME280;2025;48.260;16.432;2022-07-10T06:31:17;100013.78;;;17.42;100.00
4022;BME280;2025;48.260;16.432;2022-07-10T06:34:01;100014.72;;;17.40;100.00
4022;BME280;2025;48.260;16.432;2022-07-10T06:36:36;100014.00;;;17.25;100.00
4022;BME280;2025;48.260;16.432;2022-07-10T06:39:15;100021.84;;;17.35;100.00
4022;BME280;2025;48.260;16.432;2022-07-10T06:41:45;100018.28;;;17.37;100.00
4022;BME280;2025;48.260;16.432;2022-07-10T06:44:12;100022.63;;;17.43;100.00
4022;BME280;2025;48.260;16.432;2022-07-10T06:46:39;100009.47;;;17.37;100.00
4022;BME280;2025;48.260;16.432;2022-07-10T06:49:13;100015.22;;;17.63;100.00
4022;BME280;2025;48.260;16.432;2022-07-10T06:51:42;100008.94;;;17.72;100.00
4022;BME280;2025;48.260;16.432;2022-07-10T06:54:14;100013.22;;;17.80;100.00
4022;BME280;2025;48.260;16.432;2022-07-10T06:56:48;100012.97;;;17.94;100.00
4022;BME280;2025;48.260;16.432;2022-07-10T06:59:20;100023.56;;;17.95;100.00
4022;BME280;2025;48.260;16.432;2022-07-10T07:01:47;100023.47;;;18.00;100.00
4022;BME280;2025;48.260;16.432;2022-07-10T07:04:17;100020.53;;;17.66;100.00
4022;BME280;2025;48.260;16.432;2022-07-10T07:06:58;100018.66;;;17.73;100.00
4022;BME280;2025;48.260;16.432;2022-07-10T07:09:33;100021.38;;;17.65;100.00
4022;BME280;2025;48.260;16.432;2022-07-10T07:12:18;100023.97;;;17.71;100.00
4022;BME280;2025;48.260;16.432;2022-07-10T07:14:45;100024.88;;;17.70;100.00
4022;BME280;2025;48.260;16.432;2022-07-10T07:17:15;100027.69;;;17.58;100.00
4022;BME280;2025;48.260;16.432;2022-07-10T07:19:59;100019.00;;;17.48;100.00
4022;BME280;2025;48.260;16.432;2022-07-10T07:22:49;100024.38;;;17.44;100.00
4022;BME280;2025;48.260;16.432;2022-07-10T07:25:36;100025.25;;;17.43;100.00
4022;BME280;2025;48.260;16.432;2022-07-10T07:28:26;100030.41;;;17.53;100.00
4022;BME280;2025;48.260;16.432;2022-07-10T07:31:11;100026.09;;;17.46;100.00
4022;BME280;2025;48.260;16.432;2022-07-10T07:33:57;100019.94;;;17.44;100.00
4022;BME280;2025;48.260;16.432;2022-07-10T07:36:48;100027.81;;;17.49;100.00
4022;BME280;2025;48.260;16.432;2022-07-10T07:39:22;100025.09;;;17.53;100.00
4022;BME280;2025;48.260;16.432;2022-07-10T07:41:59;100019.88;;;17.49;100.00
4022;BME280;2025;48.260;16.432;2022-07-10T07:44:28;100028.69;;;17.49;100.00
4022;BME280;2025;48.260;16.432;2022-07-10T07:46:58;100035.94;;;17.37;100.00
4022;BME280;2025;48.260;16.432;2022-07-10T07:49:41;100029.94;;;17.22;100.00
4022;BME280;2025;48.260;16.432;2022-07-10T07:52:19;100043.44;;;17.03;100.00
4022;BME280;2025;48.260;16.432;2022-07-10T07:54:49;100045.34;;;16.93;100.00
4022;BME280;2025;48.260;16.432;2022-07-10T07:57:20;100036.66;;;16.82;100.00
4022;BME280;2025;48.260;16.432;2022-07-10T07:59:52;100045.50;;;16.79;100.00
4022;BME280;2025;48.260;16.432;2022-07-10T08:02:24;100057.00;;;16.77;100.00
4022;BME280;2025;48.260;16.432;2022-07-10T08:04:57;100046.56;;;16.63;100.00
4022;BME280;2025;48.260;16.432;2022-07-10T08:07:54;100040.47;;;16.56;100.00
4022;BME280;2025;48.260;16.432;2022-07-10T08:10:31;100034.34;;;16.51;100.00
4022;BME280;2025;48.260;16.432;2022-07-10T08:13:08;100035.97;;;16.64;100.00
4022;BME280;2025;48.260;16.432;2022-07-10T08:15:37;100035.06;;;16.64;100.00
4022;BME280;2025;48.260;16.432;2022-07-10T08:18:07;100048.38;;;16.58;100.00
4022;BME280;2025;48.260;16.432;2022-07-10T08:20:59;100046.53;;;16.69;100.00
4022;BME280;2025;48.260;16.432;2022-07-10T08:23:53;100059.72;;;16.71;100.00
4022;BME280;2025;48.260;16.432;2022-07-10T08:26:24;100065.09;;;16.61;100.00
4022;BME280;2025;48.260;16.432;2022-07-10T08:29:28;100066.66;;;16.82;100.00
4022;BME280;2025;48.260;16.432;2022-07-10T08:31:58;100073.72;;;16.82;100.00
4022;BME280;2025;48.260;16.432;2022-07-10T08:34:33;100073.91;;;16.65;100.00
4022;BME280;2025;48.260;16.432;2022-07-10T08:37:20;100075.59;;;16.72;100.00
4022;BME280;2025;48.260;16.432;2022-07-10T08:43:17;100084.47;;;16.63;100.00
4022;BME280;2025;48.260;16.432;2022-07-10T08:46:01;100082.94;;;16.41;100.00
4022;BME280;2025;48.260;16.432;2022-07-10T08:48:38;100078.84;;;16.08;100.00
4022;BME280;2025;48.260;16.432;2022-07-10T08:52:12;100079.53;;;16.30;100.00
4022;BME280;2025;48.260;16.432;2022-07-10T08:54:46;100086.72;;;16.16;100.00
4022;BME280;2025;48.260;16.432;2022-07-10T08:57:20;100084.22;;;15.97;100.00
4022;BME280;2025;48.260;16.432;2022-07-10T09:00:06;100078.91;;;16.02;100.00
4022;BME280;2025;48.260;16.432;2022-07-10T09:02:38;100077.97;;;16.08;100.00
4022;BME280;2025;48.260;16.432;2022-07-10T09:05:19;100077.84;;;16.21;100.00
4022;BME280;2025;48.260;16.432;2022-07-10T09:07:49;100065.16;;;16.55;100.00
4022;BME280;2025;48.260;16.432;2022-07-10T09:10:20;100067.72;;;16.66;100.00
4022;BME280;2025;48.260;16.432;2022-07-10T09:13:01;100059.50;;;16.90;100.00
4022;BME280;2025;48.260;16.432;2022-07-10T09:15:51;100053.91;;;17.13;100.00
4022;BME280;2025;48.260;16.432;2022-07-10T09:18:26;100046.19;;;16.95;100.00
4022;BME280;2025;48.260;16.432;2022-07-10T09:21:06;100036.66;;;16.83;100.00
4022;BME280;2025;48.260;16.432;2022-07-10T09:23:48;100033.50;;;17.21;100.00
4022;BME280;2025;48.260;16.432;2022-07-10T09:26:18;100039.75;;;17.79;100.00
4022;BME280;2025;48.260;16.432;2022-07-10T09:29:05;100038.56;;;17.97;100.00
4022;BME280;2025;48.260;16.432;2022-07-10T09:31:57;100049.78;;;18.12;100.00
4022;BME280;2025;48.260;16.432;2022-07-10T09:34:44;100049.44;;;18.31;100.00
4022;BME280;2025;48.260;16.432;2022-07-10T09:37:28;100058.47;;;18.70;100.00
4022;BME280;2025;48.260;16.432;2022-07-10T09:39:58;100061.38;;;18.54;100.00
4022;BME280;2025;48.260;16.432;2022-07-10T09:42:49;100055.22;;;18.52;100.00
4022;BME280;2025;48.260;16.432;2022-07-10T09:45:33;100040.66;;;18.28;100.00
4022;BME280;2025;48.260;16.432;2022-07-10T09:48:30;100027.72;;;18.56;100.00
4022;BME280;2025;48.260;16.432;2022-07-10T09:50:57;100025.56;;;18.78;100.00
4022;BME280;2025;48.260;16.432;2022-07-10T09:53:25;100025.59;;;19.18;100.00
4022;BME280;2025;48.260;16.432;2022-07-10T09:55:55;100020.53;;;19.46;100.00
4022;BME280;2025;48.260;16.432;2022-07-10T09:58:32;100029.13;;;19.95;100.00
4022;BME280;2025;48.260;16.432;2022-07-10T10:01:14;100022.44;;;19.78;100.00
4022;BME280;2025;48.260;16.432;2022-07-10T10:04:04;100033.25;;;20.06;100.00
4022;BME280;2025;48.260;16.432;2022-07-10T10:06:39;100024.53;;;20.01;100.00
4022;BME280;2025;48.260;16.432;2022-07-10T10:09:19;100034.75;;;19.82;100.00
4022;BME280;2025;48.260;16.432;2022-07-10T10:11:49;100026.50;;;20.27;100.00
4022;BME280;2025;48.260;16.432;2022-07-10T10:14:19;100030.19;;;19.88;100.00
4022;BME280;2025;48.260;16.432;2022-07-10T10:16:48;100024.63;;;19.63;100.00
4022;BME280;2025;48.260;16.432;2022-07-10T10:19:18;100017.72;;;19.54;100.00
4022;BME280;2025;48.260;16.432;2022-07-10T10:22:04;100016.38;;;19.73;100.00
4022;BME280;2025;48.260;16.432;2022-07-10T10:24:33;100012.34;;;19.93;100.00
4022;BME280;2025;48.260;16.432;2022-07-10T10:27:01;100012.78;;;19.76;100.00
4022;BME280;2025;48.260;16.432;2022-07-10T10:29:29;100002.41;;;19.99;100.00
4022;BME280;2025;48.260;16.432;2022-07-10T10:31:57;100005.31;;;20.24;100.00
4022;BME280;2025;48.260;16.432;2022-07-10T10:34:42;99996.56;;;20.19;100.00
4022;BME280;2025;48.260;16.432;2022-07-10T10:37:28;100002.31;;;20.04;100.00
4022;BME280;2025;48.260;16.432;2022-07-10T10:39:59;99995.31;;;20.00;100.00
4022;BME280;2025;48.260;16.432;2022-07-10T10:42:34;99996.66;;;20.16;100.00
4022;BME280;2025;48.260;16.432;2022-07-10T10:45:32;99997.53;;;20.16;100.00
4022;BME280;2025;48.260;16.432;2022-07-10T10:48:05;99992.69;;;19.98;100.00
4022;BME280;2025;48.260;16.432;2022-07-10T10:50:57;99988.50;;;19.90;100.00
4022;BME280;2025;48.260;16.432;2022-07-10T10:53:39;99987.66;;;19.88;100.00
4022;BME280;2025;48.260;16.432;2022-07-10T10:56:26;99988.53;;;19.51;100.00
4022;BME280;2025;48.260;16.432;2022-07-10T11:02:21;99985.69;;;19.60;100.00
4022;BME280;2025;48.260;16.432;2022-07-10T11:04:52;99981.13;;;19.65;100.00
4022;BME280;2025;48.260;16.432;2022-07-10T11:08:04;99984.38;;;20.10;100.00
4022;BME280;2025;48.260;16.432;2022-07-10T11:10:33;99977.56;;;20.65;100.00
4022;BME280;2025;48.260;16.432;2022-07-10T11:13:05;99984.53;;;20.69;100.00
4022;BME280;2025;48.260;16.432;2022-07-10T11:15:34;99988.81;;;20.44;100.00
4022;BME280;2025;48.260;16.432;2022-07-10T11:18:06;99985.94;;;20.19;100.00
4022;BME280;2025;48.260;16.432;2022-07-10T11:20:40;99981.22;;;20.29;100.00
4022;BME280;2025;48.260;16.432;2022-07-10T11:26:42;99996.59;;;19.85;100.00
4022;BME280;2025;48.260;16.432;2022-07-10T11:29:20;99992.81;;;19.94;100.00
4022;BME280;2025;48.260;16.432;2022-07-10T11:32:03;100002.06;;;20.13;100.00
4022;BME280;2025;48.260;16.432;2022-07-10T11:34:34;99993.09;;;20.17;100.00
4022;BME280;2025;48.260;16.432;2022-07-10T11:37:14;99984.44;;;20.09;94.29
4022;BME280;2025;48.260;16.432;2022-07-10T11:39:43;99992.19;;;19.84;95.91
4022;BME280;2025;48.260;16.432;2022-07-10T11:42:10;99987.88;;;19.78;97.80
4022;BME280;2025;48.260;16.432;2022-07-10T11:44:37;99991.78;;;20.32;97.95
4022;BME280;2025;48.260;16.432;2022-07-10T11:47:04;99983.03;;;20.61;92.15
4022;BME280;2025;48.260;16.432;2022-07-10T11:49:33;99980.41;;;20.59;91.19
4022;BME280;2025;48.260;16.432;2022-07-10T11:52:02;99984.00;;;20.89;100.00
4022;BME280;2025;48.260;16.432;2022-07-10T11:54:30;99979.03;;;21.06;95.06
4022;BME280;2025;48.260;16.432;2022-07-10T11:57:05;99982.06;;;20.63;88.01
4022;BME280;2025;48.260;16.432;2022-07-10T11:59:33;99969.97;;;20.52;87.09
4022;BME280;2025;48.260;16.432;2022-07-10T12:02:00;99969.59;;;20.65;84.68
4022;BME280;2025;48.260;16.432;2022-07-10T12:04:31;99975.00;;;20.62;89.89
4022;BME280;2025;48.260;16.432;2022-07-10T12:06:58;99967.78;;;21.26;85.95
4022;BME280;2025;48.260;16.432;2022-07-10T12:09:25;99966.66;;;21.33;81.77
4022;BME280;2025;48.260;16.432;2022-07-10T12:12:03;99964.75;;;20.78;83.66
4022;BME280;2025;48.260;16.432;2022-07-10T12:14:31;99957.19;;;20.64;78.95
4022;BME280;2025;48.260;16.432;2022-07-10T12:17:00;99952.91;;;21.18;77.33
4022;BME280;2025;48.260;16.432;2022-07-10T12:19:29;99956.81;;;21.35;76.01
4022;BME280;2025;48.260;16.432;2022-07-10T12:21:58;99960.38;;;21.62;75.52
4022;BME280;2025;48.260;16.432;2022-07-10T12:24:27;99962.38;;;21.82;72.91
4022;BME280;2025;48.260;16.432;2022-07-10T12:26:54;99963.25;;;21.83;70.04
4022;BME280;2025;48.260;16.432;2022-07-10T12:29:24;99956.59;;;22.21;79.93
4022;BME280;2025;48.260;16.432;2022-07-10T12:31:53;99959.38;;;21.91;73.30
4022;BME280;2025;48.260;16.432;2022-07-10T12:34:32;99966.94;;;20.95;71.85
4022;BME280;2025;48.260;16.432;2022-07-10T12:37:06;99963.78;;;20.51;72.04
4022;BME280;2025;48.260;16.432;2022-07-10T12:39:36;99961.47;;;20.37;75.12
4022;BME280;2025;48.260;16.432;2022-07-10T12:42:05;99969.91;;;20.86;74.07
4022;BME280;2025;48.260;16.432;2022-07-10T12:44:39;99974.22;;;21.47;70.53
4022;BME280;2025;48.260;16.432;2022-07-10T12:47:07;99989.91;;;21.83;67.89
4022;BME280;2025;48.260;16.432;2022-07-10T12:49:50;99983.34;;;21.66;76.51
4022;BME280;2025;48.260;16.432;2022-07-10T12:52:26;99977.31;;;21.04;66.50
4022;BME280;2025;48.260;16.432;2022-07-10T12:55:17;99982.56;;;21.36;74.30
4022;BME280;2025;48.260;16.432;2022-07-10T13:05:10;100005.38;;;20.86;78.62
4022;BME280;2025;48.260;16.432;2022-07-10T13:07:50;100002.09;;;21.37;74.81
4022;BME280;2025;48.260;16.432;2022-07-10T13:10:34;99987.56;;;21.73;71.49
4022;BME280;2025;48.260;16.432;2022-07-10T13:13:12;100001.97;;;22.21;87.36
4022;BME280;2025;48.260;16.432;2022-07-10T13:15:54;99994.44;;;22.07;61.62
4022;BME280;2025;48.260;16.432;2022-07-10T13:18:24;100002.78;;;22.48;64.98
4022;BME280;2025;48.260;16.432;2022-07-10T13:20:56;100003.34;;;23.06;68.09
4022;BME280;2025;48.260;16.432;2022-07-10T13:23:26;99999.34;;;22.94;65.80
4022;BME280;2025;48.260;16.432;2022-07-10T13:25:58;100003.75;;;22.95;57.52
4022;BME280;2025;48.260;16.432;2022-07-10T13:28:44;100006.56;;;22.67;55.07
4022;BME280;2025;48.260;16.432;2022-07-10T13:31:11;100007.72;;;22.08;63.27
4022;BME280;2025;48.260;16.432;2022-07-10T13:33:38;99999.00;;;22.55;57.47
4022;BME280;2025;48.260;16.432;2022-07-10T13:36:07;100003.78;;;23.62;63.59
4022;BME280;2025;48.260;16.432;2022-07-10T13:38:42;100005.59;;;24.04;58.37
4022;BME280;2025;48.260;16.432;2022-07-10T13:41:35;100001.03;;;23.42;54.12
4022;BME280;2025;48.260;16.432;2022-07-10T13:44:10;99998.81;;;23.08;56.21
4022;BME280;2025;48.260;16.432;2022-07-10T13:46:54;99985.31;;;23.11;70.59
4022;BME280;2025;48.260;16.432;2022-07-10T13:49:27;100000.28;;;22.68;58.58